createdAt,value
2023-04-15T00:00:58.191Z,54.19
2023-04-15T00:03:24.845Z,56.09
2023-04-15T00:05:51.982Z,55.85
2023-04-15T00:08:18.586Z,56.33
2023-04-15T00:10:46.462Z,57.36
2023-04-15T00:13:12.869Z,56.32
2023-04-15T00:15:39.406Z,57.16
2023-04-15T00:18:05.763Z,56.53
2023-04-15T00:20:32.215Z,56.23
2023-04-15T00:23:00.412Z,55.33
2023-04-15T00:25:26.786Z,55.51
2023-04-15T00:27:53.600Z,55.56
2023-04-15T00:30:20.483Z,55.54
2023-04-15T00:32:46.924Z,55.74
2023-04-15T00:35:13.837Z,57.09
2023-04-15T00:37:40.443Z,57.63
2023-04-15T00:40:11.875Z,59.22
2023-04-15T00:42:39.220Z,60.47
2023-04-15T00:45:07.081Z,59.54
2023-04-15T00:47:35.550Z,59.07
2023-04-15T00:50:02.111Z,58.45
2023-04-15T00:52:28.574Z,57.66
2023-04-15T00:54:55.380Z,58.23
2023-04-15T00:57:22.821Z,59.44
2023-04-15T00:59:49.286Z,59.06
2023-04-15T01:02:16.484Z,59.35
2023-04-15T01:04:43.446Z,57.88
2023-04-15T01:07:09.820Z,57.49
2023-04-15T01:09:36.428Z,57.49
2023-04-15T01:12:04.270Z,57.14
2023-04-15T01:14:30.927Z,56.97
2023-04-15T01:16:57.558Z,57.75
2023-04-15T01:19:24.132Z,57.42
2023-04-15T01:21:50.712Z,57.74
2023-04-15T01:24:18.586Z,57.93
2023-04-15T01:26:46.471Z,57.42
2023-04-15T01:29:13.168Z,57.85
2023-04-15T01:31:39.566Z,57.20
2023-04-15T01:34:06.027Z,57.40
2023-04-15T01:36:32.485Z,57.07
2023-04-15T01:38:59.338Z,57.02
2023-04-15T01:41:27.362Z,57.13
2023-04-15T01:43:53.954Z,58.14
2023-04-15T01:46:20.452Z,58.78
2023-04-15T01:48:47.223Z,59.17
2023-04-15T01:51:13.609Z,58.62
2023-04-15T01:53:40.004Z,60.12
2023-04-15T01:56:07.251Z,60.03
2023-04-15T01:58:33.708Z,59.75
2023-04-15T02:01:00.144Z,59.40
2023-04-15T02:03:27.609Z,58.67
2023-04-15T02:05:54.106Z,57.86
2023-04-15T02:08:20.618Z,58.21
2023-04-15T02:10:47.450Z,58.88
2023-04-15T02:13:13.834Z,58.53
2023-04-15T02:15:40.266Z,58.92
2023-04-15T02:18:06.669Z,58.59
2023-04-15T02:20:33.070Z,59.28
2023-04-15T02:22:59.487Z,60.72
2023-04-15T02:25:25.937Z,60.46
2023-04-15T02:27:53.170Z,59.00
2023-04-15T02:30:19.638Z,59.37
2023-04-15T02:32:46.461Z,58.95
2023-04-15T02:35:13.169Z,59.38
2023-04-15T02:37:45.673Z,59.12
2023-04-15T02:40:13.048Z,58.95
2023-04-15T02:42:40.425Z,58.96
2023-04-15T02:45:07.908Z,59.79
2023-04-15T02:47:35.978Z,59.71
2023-04-15T02:50:03.791Z,59.71
2023-04-15T02:52:30.207Z,59.47
2023-04-15T02:55:00.545Z,60.24
2023-04-15T02:57:30.290Z,61.69
2023-04-15T02:59:56.653Z,63.55
2023-04-15T03:02:23.404Z,63.85
2023-04-15T03:04:49.999Z,62.77
2023-04-15T03:07:18.037Z,60.88
2023-04-15T03:09:45.096Z,61.65
2023-04-15T03:12:11.499Z,60.93
2023-04-15T03:14:37.830Z,60.92
2023-04-15T03:17:04.183Z,60.85
2023-04-15T03:19:31.775Z,60.93
2023-04-15T03:21:58.146Z,60.80
2023-04-15T03:24:24.904Z,60.24
2023-04-15T03:26:51.425Z,60.56
2023-04-15T03:29:17.785Z,60.54
2023-04-15T03:31:44.168Z,61.76
2023-04-15T03:34:10.548Z,61.77
2023-04-15T03:36:36.974Z,62.88
2023-04-15T03:39:04.116Z,62.62
2023-04-15T03:41:30.870Z,62.27
2023-04-15T03:43:57.184Z,61.62
2023-04-15T03:46:23.576Z,61.43
2023-04-15T03:48:49.945Z,61.79
2023-04-15T03:51:16.367Z,61.95
2023-04-15T03:53:42.747Z,61.73
2023-04-15T03:56:09.106Z,61.76
2023-04-15T03:58:35.782Z,61.94
2023-04-15T04:01:02.204Z,62.48
2023-04-15T04:03:28.739Z,63.48
2023-04-15T04:05:56.186Z,63.97
2023-04-15T04:08:22.584Z,63.82
2023-04-15T04:10:49.058Z,63.52
2023-04-15T04:13:15.551Z,63.53
2023-04-15T04:15:41.984Z,64.04
2023-04-15T04:18:08.405Z,62.97
2023-04-15T04:20:35.012Z,64.21
2023-04-15T04:23:01.388Z,63.75
2023-04-15T04:25:28.073Z,63.58
2023-04-15T04:27:54.478Z,63.66
2023-04-15T04:30:20.836Z,63.68
2023-04-15T04:32:47.269Z,63.73
2023-04-15T04:35:13.647Z,63.16
2023-04-15T04:37:40.487Z,61.99
2023-04-15T04:40:08.012Z,61.57
2023-04-15T04:42:34.542Z,62.12
2023-04-15T04:45:01.056Z,61.45
2023-04-15T04:47:27.514Z,61.43
2023-04-15T04:49:53.911Z,61.80
2023-04-15T04:52:20.287Z,62.00
2023-04-15T04:54:47.236Z,61.34
2023-04-15T04:57:13.808Z,61.72
2023-04-15T04:59:41.392Z,61.60
2023-04-15T05:02:07.926Z,61.71
2023-04-15T05:04:34.564Z,61.41
2023-04-15T05:07:00.969Z,61.63
2023-04-15T05:09:27.338Z,61.83
2023-04-15T05:11:53.972Z,61.76
2023-04-15T05:14:22.212Z,61.57
2023-04-15T05:16:50.152Z,61.79
2023-04-15T05:19:16.534Z,62.21
2023-04-15T05:21:43.154Z,62.23
2023-04-15T05:24:09.550Z,62.32
2023-04-15T05:26:36.000Z,62.57
2023-04-15T05:29:02.824Z,62.26
2023-04-15T05:31:29.398Z,62.29
2023-04-15T05:33:55.866Z,61.70
2023-04-15T05:36:22.248Z,62.52
2023-04-15T05:38:48.650Z,62.20
2023-04-15T05:41:17.805Z,62.68
2023-04-15T05:43:46.382Z,62.38
2023-04-15T05:46:12.914Z,62.13
2023-04-15T05:48:39.395Z,63.48
2023-04-15T05:51:06.346Z,62.79
2023-04-15T05:53:32.743Z,63.87
2023-04-15T05:55:59.160Z,63.73
2023-04-15T05:58:25.564Z,63.26
2023-04-15T06:00:51.940Z,62.81
2023-04-15T06:03:18.708Z,62.79
2023-04-15T06:05:45.110Z,63.80
2023-04-15T06:08:11.988Z,62.59
2023-04-15T06:10:38.462Z,63.27
2023-04-15T06:13:04.883Z,63.24
2023-04-15T06:15:31.695Z,64.06
2023-04-15T06:17:58.349Z,63.32
2023-04-15T06:20:25.397Z,64.66
2023-04-15T06:22:52.118Z,63.65
2023-04-15T06:25:18.456Z,63.80
2023-04-15T06:27:44.856Z,64.32
2023-04-15T06:30:11.999Z,64.64
2023-04-15T06:32:38.460Z,65.02
2023-04-15T06:35:05.470Z,65.00
2023-04-15T06:37:32.650Z,65.53
2023-04-15T06:39:59.002Z,64.33
2023-04-15T06:42:25.649Z,65.07
2023-04-15T06:44:51.967Z,64.67
2023-04-15T06:47:18.383Z,65.32
2023-04-15T06:49:44.843Z,64.49
2023-04-15T06:52:11.369Z,65.03
2023-04-15T06:54:37.792Z,66.04
2023-04-15T06:57:04.434Z,65.53
2023-04-15T06:59:31.105Z,64.66
2023-04-15T07:01:57.487Z,66.10
2023-04-15T07:04:24.415Z,65.54
2023-04-15T07:06:50.865Z,65.31
2023-04-15T07:09:17.246Z,65.15
2023-04-15T07:11:43.636Z,64.44
2023-04-15T07:14:09.957Z,65.74
2023-04-15T07:16:36.437Z,65.81
2023-04-15T07:19:03.110Z,67.44
2023-04-15T07:21:29.892Z,66.91
2023-04-15T07:23:56.502Z,66.79
2023-04-15T07:26:23.386Z,66.06
2023-04-15T07:28:49.705Z,65.87
2023-04-15T07:31:17.208Z,66.24
2023-04-15T07:33:43.552Z,66.15
2023-04-15T07:36:10.505Z,65.66
2023-04-15T07:38:37.070Z,65.64
2023-04-15T07:41:04.074Z,66.68
2023-04-15T07:43:30.389Z,65.93
2023-04-15T07:45:56.758Z,65.17
2023-04-15T07:48:23.133Z,66.10
2023-04-15T07:50:49.590Z,64.79
2023-04-15T07:53:15.968Z,64.08
2023-04-15T07:55:42.316Z,64.78
2023-04-15T07:58:08.670Z,63.66
2023-04-15T08:00:35.036Z,64.73
2023-04-15T08:03:01.484Z,63.88
2023-04-15T08:05:27.944Z,63.97
2023-04-15T08:07:54.316Z,63.46
2023-04-15T08:10:20.736Z,62.67
2023-04-15T08:12:49.423Z,62.84
2023-04-15T08:15:15.895Z,63.18
2023-04-15T08:17:42.273Z,63.50
2023-04-15T08:20:09.579Z,62.07
2023-04-15T08:22:36.346Z,62.07
2023-04-15T08:25:03.392Z,62.95
2023-04-15T08:27:29.798Z,61.86
2023-04-15T08:29:56.271Z,61.56
2023-04-15T08:32:22.797Z,59.40
2023-04-15T08:34:49.248Z,61.21
2023-04-15T08:37:15.676Z,61.03
2023-04-15T08:39:42.057Z,59.76
2023-04-15T08:42:16.421Z,59.42
2023-04-15T08:44:43.156Z,59.27
2023-04-15T08:47:09.741Z,57.54
2023-04-15T08:49:41.665Z,56.99
2023-04-15T08:52:09.326Z,57.33
2023-04-15T08:54:36.579Z,57.47
2023-04-15T08:57:03.785Z,59.10
2023-04-15T08:59:31.166Z,58.47
2023-04-15T09:01:58.502Z,57.62
2023-04-15T09:04:24.899Z,57.42
2023-04-15T09:06:52.173Z,57.43
2023-04-15T09:09:18.654Z,57.51
2023-04-15T09:11:45.370Z,56.63
2023-04-15T09:14:12.265Z,55.12
2023-04-15T09:16:58.883Z,55.18
2023-04-15T09:19:26.184Z,55.68
2023-04-15T09:21:55.956Z,54.07
2023-04-15T09:24:26.946Z,53.83
2023-04-15T09:26:55.330Z,52.45
2023-04-15T09:29:25.494Z,52.75
2023-04-15T09:31:52.667Z,53.15
2023-04-15T09:34:19.540Z,52.77
2023-04-15T09:36:53.020Z,52.46
2023-04-15T09:39:21.708Z,52.63
2023-04-15T09:42:05.413Z,51.88
2023-04-15T09:44:34.284Z,51.59
2023-04-15T09:47:01.003Z,53.10
2023-04-15T09:49:28.163Z,52.13
2023-04-15T09:52:05.517Z,50.74
2023-04-15T09:54:37.613Z,51.32
2023-04-15T09:57:08.920Z,49.41
2023-04-15T09:59:36.015Z,49.89
2023-04-15T10:02:06.588Z,50.30
2023-04-15T10:04:38.352Z,50.79
2023-04-15T10:07:06.157Z,51.21
2023-04-15T10:09:34.176Z,51.02
2023-04-15T10:12:01.156Z,51.58
2023-04-15T10:14:32.327Z,52.17
2023-04-15T10:17:01.752Z,51.29
2023-04-15T10:19:31.653Z,50.88
2023-04-15T10:21:59.501Z,49.36
2023-04-15T10:24:27.740Z,49.91
2023-04-15T10:26:55.307Z,50.23
2023-04-15T10:29:22.820Z,48.73
2023-04-15T10:31:49.560Z,48.71
2023-04-15T10:34:17.399Z,50.62
2023-04-15T10:36:43.784Z,49.06
2023-04-15T10:39:37.451Z,49.82
2023-04-15T10:42:11.225Z,49.44
2023-04-15T10:44:38.854Z,49.64
2023-04-15T10:47:20.407Z,49.28
2023-04-15T10:49:58.148Z,46.94
2023-04-15T10:52:28.806Z,46.52
2023-04-15T10:55:15.735Z,47.74
2023-04-15T10:57:43.094Z,46.74
2023-04-15T11:00:16.876Z,47.21
2023-04-15T11:02:53.880Z,46.04
2023-04-15T11:05:22.272Z,43.41
2023-04-15T11:07:56.771Z,41.86
2023-04-15T11:10:26.421Z,37.75
2023-04-15T11:13:01.883Z,37.57
2023-04-15T11:15:33.117Z,36.32
2023-04-15T11:18:16.663Z,37.53
2023-04-15T11:20:45.213Z,37.29
2023-04-15T11:23:15.112Z,39.78
2023-04-15T11:25:43.011Z,39.65
2023-04-15T11:28:10.881Z,38.19
2023-04-15T11:30:38.002Z,38.04
2023-04-15T11:33:06.548Z,39.42
2023-04-15T11:35:33.451Z,41.78
2023-04-15T11:38:03.764Z,43.54
2023-04-15T11:40:31.458Z,45.17
2023-04-15T11:43:11.127Z,45.42
2023-04-15T11:45:48.251Z,44.90
2023-04-15T11:48:14.894Z,44.59
2023-04-15T11:50:41.572Z,43.35
2023-04-15T11:53:10.017Z,39.94
2023-04-15T11:55:47.649Z,40.60
2023-04-15T11:58:16.788Z,43.63
2023-04-15T12:00:54.981Z,44.95
2023-04-15T12:03:23.804Z,46.11
2023-04-15T12:06:08.073Z,43.41
2023-04-15T12:09:00.055Z,44.98
2023-04-15T12:11:26.424Z,43.46
2023-04-15T12:14:06.871Z,43.41
2023-04-15T12:16:37.281Z,44.22
2023-04-15T12:19:18.954Z,44.65
2023-04-15T12:21:47.996Z,44.58
2023-04-15T12:24:14.918Z,45.57
2023-04-15T12:26:45.593Z,45.96
2023-04-15T12:29:13.949Z,45.42
2023-04-15T12:31:59.813Z,45.46
2023-04-15T12:34:28.529Z,47.54
2023-04-15T12:36:55.595Z,45.45
2023-04-15T12:39:27.647Z,45.73
2023-04-15T12:41:55.674Z,44.96
2023-04-15T12:44:23.930Z,45.42
2023-04-15T12:46:52.842Z,45.55
2023-04-15T12:49:21.026Z,45.49
2023-04-15T12:51:49.915Z,44.83
2023-04-15T12:54:17.501Z,46.01
2023-04-15T12:56:49.586Z,46.49
2023-04-15T12:59:20.265Z,47.36
2023-04-15T13:04:33.777Z,43.20
2023-04-15T13:07:02.346Z,42.39
2023-04-15T13:09:28.664Z,43.80
2023-04-15T13:11:56.044Z,45.43
2023-04-15T13:14:22.543Z,47.25
2023-04-15T13:16:48.952Z,47.73
2023-04-15T13:19:15.803Z,49.56
2023-04-15T13:21:42.158Z,47.18
2023-04-15T13:24:09.600Z,46.81
2023-04-15T13:26:36.292Z,47.73
2023-04-15T13:29:02.690Z,48.04
2023-04-15T13:31:29.108Z,48.21
2023-04-15T13:33:57.255Z,45.09
2023-04-15T13:36:23.613Z,46.78
2023-04-15T13:38:58.756Z,47.35
2023-04-15T13:41:25.261Z,48.37
2023-04-15T13:43:51.649Z,46.83
2023-04-15T13:46:18.096Z,46.63
2023-04-15T13:48:44.507Z,47.97
2023-04-15T13:51:10.970Z,48.17
2023-04-15T13:53:38.973Z,48.98
2023-04-15T13:56:09.918Z,48.95
2023-04-15T13:58:37.722Z,47.73
2023-04-15T14:01:06.140Z,48.84
2023-04-15T14:03:34.735Z,47.88
2023-04-15T14:06:01.370Z,48.30
2023-04-15T14:08:27.809Z,48.95
2023-04-15T14:10:54.230Z,48.07
2023-04-15T14:13:20.626Z,49.03
2023-04-15T14:16:14.103Z,49.37
2023-04-15T14:18:40.713Z,48.56
2023-04-15T14:21:07.119Z,48.32
2023-04-15T14:23:33.497Z,47.75
2023-04-15T14:25:59.892Z,49.17
2023-04-15T14:28:26.314Z,49.87
2023-04-15T14:30:53.391Z,49.93
2023-04-15T14:33:20.448Z,49.09
2023-04-15T14:35:46.922Z,49.64
2023-04-15T14:38:13.389Z,49.03
2023-04-15T14:40:41.037Z,47.85
2023-04-15T14:43:07.709Z,47.54
2023-04-15T14:45:34.874Z,47.29
2023-04-15T14:48:01.506Z,47.80
2023-04-15T14:50:28.071Z,47.26
2023-04-15T14:52:54.417Z,47.84
2023-04-15T14:55:20.892Z,48.42
2023-04-15T14:57:47.558Z,48.36
2023-04-15T15:00:15.992Z,49.08
2023-04-15T15:02:42.838Z,48.11
2023-04-15T15:05:10.547Z,46.47
2023-04-15T15:07:38.099Z,45.50
2023-04-15T15:10:05.316Z,45.90
2023-04-15T15:12:32.709Z,47.88
2023-04-15T15:14:59.227Z,46.07
2023-04-15T15:17:25.740Z,46.20
2023-04-15T15:19:52.264Z,46.74
2023-04-15T15:22:20.854Z,47.60
2023-04-15T15:24:47.919Z,47.19
2023-04-15T15:27:14.573Z,48.08
2023-04-15T15:29:41.048Z,46.73
2023-04-15T15:32:07.833Z,46.21
2023-04-15T15:34:34.247Z,45.94
2023-04-15T15:37:00.946Z,46.36
2023-04-15T15:39:27.636Z,47.59
2023-04-15T15:41:53.978Z,49.12
2023-04-15T15:44:20.324Z,49.20
2023-04-15T15:46:46.883Z,49.44
2023-04-15T15:49:13.214Z,49.91
2023-04-15T15:51:39.615Z,46.72
2023-04-15T15:54:05.983Z,48.16
2023-04-15T15:56:33.163Z,46.43
2023-04-15T15:58:59.578Z,45.94
2023-04-15T16:01:26.013Z,46.39
2023-04-15T16:03:52.620Z,46.89
2023-04-15T16:06:19.104Z,47.77
2023-04-15T16:08:45.664Z,48.58
2023-04-15T16:11:12.091Z,49.07
2023-04-15T16:13:38.610Z,50.16
2023-04-15T16:16:05.138Z,50.99
2023-04-15T16:18:32.454Z,51.01
2023-04-15T16:21:00.365Z,52.52
2023-04-15T16:23:26.825Z,51.71
2023-04-15T16:25:53.372Z,52.29
2023-04-15T16:28:26.470Z,51.01
2023-04-15T16:30:54.221Z,52.00
2023-04-15T16:33:20.621Z,52.98
2023-04-15T16:35:47.131Z,53.01
2023-04-15T16:38:13.552Z,53.49
2023-04-15T16:40:39.955Z,53.16
2023-04-15T16:43:11.213Z,53.20
2023-04-15T16:45:37.910Z,53.68
2023-04-15T16:48:04.641Z,53.98
2023-04-15T16:50:31.401Z,54.50
2023-04-15T16:52:57.744Z,54.46
2023-04-15T16:55:24.175Z,55.33
2023-04-15T16:58:03.260Z,55.58
2023-04-15T17:00:32.028Z,55.67
2023-04-15T17:03:00.135Z,56.43
2023-04-15T17:05:27.603Z,57.12
2023-04-15T17:07:54.216Z,56.62
2023-04-15T17:10:20.744Z,56.18
2023-04-15T17:12:47.111Z,56.05
2023-04-15T17:15:13.494Z,56.22
2023-04-15T17:17:39.921Z,56.29
2023-04-15T17:20:06.746Z,56.01
2023-04-15T17:22:33.482Z,56.62
2023-04-15T17:24:59.881Z,56.58
2023-04-15T17:27:28.648Z,56.90
2023-04-15T17:29:55.031Z,57.25
2023-04-15T17:32:22.543Z,56.77
2023-04-15T17:34:51.352Z,55.75
2023-04-15T17:37:18.128Z,56.68
2023-04-15T17:39:44.697Z,56.87
2023-04-15T17:42:11.481Z,57.26
2023-04-15T17:44:37.914Z,57.01
2023-04-15T17:47:04.496Z,56.81
2023-04-15T17:49:31.302Z,57.23
2023-04-15T17:51:57.665Z,56.57
2023-04-15T17:54:24.004Z,57.20
2023-04-15T17:56:50.605Z,56.50
2023-04-15T17:59:17.569Z,57.43
2023-04-15T18:01:45.345Z,56.84
2023-04-15T18:04:12.381Z,57.51
2023-04-15T18:06:39.235Z,57.16
2023-04-15T18:09:06.986Z,57.59
2023-04-15T18:11:33.613Z,57.85
2023-04-15T18:14:03.017Z,57.98
2023-04-15T18:16:29.694Z,58.07
2023-04-15T18:18:56.203Z,58.07
2023-04-15T18:21:22.623Z,58.70
2023-04-15T18:23:48.960Z,59.01
2023-04-15T18:26:15.578Z,59.39
2023-04-15T18:28:42.033Z,59.78
2023-04-15T18:31:08.417Z,59.52
2023-04-15T18:33:37.713Z,59.99
2023-04-15T18:36:04.244Z,60.00
2023-04-15T18:38:30.841Z,60.67
2023-04-15T18:40:57.315Z,60.79
2023-04-15T18:43:23.693Z,60.81
2023-04-15T18:45:51.712Z,60.82
2023-04-15T18:48:18.165Z,60.85
2023-04-15T18:50:44.516Z,61.90
2023-04-15T18:53:10.975Z,64.31
2023-04-15T18:55:38.619Z,65.42
2023-04-15T18:58:06.375Z,66.20
2023-04-15T19:00:36.408Z,68.38
2023-04-15T19:03:03.136Z,68.52
2023-04-15T19:05:30.638Z,69.76
2023-04-15T19:07:59.616Z,71.28
2023-04-15T19:10:28.076Z,72.74
2023-04-15T19:12:55.561Z,74.08
2023-04-15T19:15:22.344Z,74.51
2023-04-15T19:17:48.814Z,74.57
2023-04-15T19:20:15.437Z,75.21
2023-04-15T19:22:43.001Z,74.85
2023-04-15T19:25:09.754Z,76.46
2023-04-15T19:27:38.040Z,76.75
2023-04-15T19:30:08.201Z,77.33
2023-04-15T19:32:35.717Z,77.78
2023-04-15T19:35:02.114Z,78.57
2023-04-15T19:37:28.596Z,77.84
2023-04-15T19:39:55.989Z,78.73
2023-04-15T19:42:22.422Z,78.25
2023-04-15T19:44:48.773Z,78.76
2023-04-15T19:47:15.412Z,81.93
2023-04-15T19:49:41.901Z,83.20
2023-04-15T19:52:08.302Z,83.14
2023-04-15T19:54:34.882Z,82.56
2023-04-15T19:57:02.029Z,82.07
2023-04-15T19:59:28.548Z,81.76
2023-04-15T20:01:55.028Z,82.55
2023-04-15T20:04:22.539Z,82.42
2023-04-15T20:06:49.669Z,82.70
2023-04-15T20:09:16.225Z,82.09
2023-04-15T20:12:46.283Z,82.17
2023-04-15T20:14:28.984Z,82.01
2023-04-15T20:16:55.422Z,81.58
2023-04-15T20:19:21.821Z,81.72
2023-04-15T20:21:48.769Z,82.11
2023-04-15T20:24:16.153Z,81.91
2023-04-15T20:26:42.758Z,81.20
2023-04-15T20:29:09.159Z,80.81
2023-04-15T20:31:36.109Z,81.42
2023-04-15T20:34:02.476Z,82.13
2023-04-15T20:36:28.953Z,82.75
2023-04-15T20:38:55.313Z,82.46
2023-04-15T20:41:22.046Z,81.94
2023-04-15T20:43:48.475Z,82.26
2023-04-15T20:46:21.226Z,81.83
2023-04-15T20:48:48.384Z,81.21
2023-04-15T20:51:15.094Z,81.56
2023-04-15T20:53:42.012Z,81.41
2023-04-15T20:56:08.495Z,81.35
2023-04-15T20:58:34.925Z,81.39
2023-04-15T21:01:01.921Z,81.74
2023-04-15T21:03:28.549Z,81.48
2023-04-15T21:05:55.256Z,81.45
2023-04-15T21:08:29.029Z,80.73
2023-04-15T21:10:56.552Z,82.68
2023-04-15T21:13:23.704Z,82.01
2023-04-15T21:15:53.229Z,82.12
2023-04-15T21:18:21.131Z,82.43
2023-04-15T21:20:55.565Z,82.27
2023-04-15T21:23:21.957Z,82.37
2023-04-15T21:25:48.350Z,82.73
2023-04-15T21:28:14.822Z,81.83
2023-04-15T21:30:41.149Z,81.88
2023-04-15T21:33:07.539Z,82.01
2023-04-15T21:35:33.891Z,81.54
2023-04-15T21:38:00.254Z,82.08
2023-04-15T21:40:26.632Z,82.38
2023-04-15T21:42:52.962Z,82.75
2023-04-15T21:45:19.327Z,82.28
2023-04-15T21:48:00.802Z,82.15
2023-04-15T21:50:32.185Z,82.63
2023-04-15T21:52:58.555Z,81.87
2023-04-15T21:55:25.016Z,81.87
2023-04-15T21:57:51.398Z,82.01
2023-04-15T22:00:17.737Z,81.75
2023-04-15T22:02:44.276Z,81.90
2023-04-15T22:05:10.782Z,82.05
2023-04-15T22:07:37.149Z,81.67
2023-04-15T22:10:03.716Z,81.60
2023-04-15T22:12:31.282Z,81.45
2023-04-15T22:14:57.605Z,81.10
2023-04-15T22:17:24.149Z,80.94
2023-04-15T22:19:50.556Z,80.99
2023-04-15T22:22:16.960Z,81.26
2023-04-15T22:24:43.296Z,81.04
2023-04-15T22:27:09.874Z,81.93
2023-04-15T22:29:36.333Z,81.19
2023-04-15T22:32:02.708Z,82.11
2023-04-15T22:34:29.053Z,81.10
2023-04-15T22:36:55.416Z,80.98
2023-04-15T22:39:21.933Z,81.87
2023-04-15T22:41:49.890Z,81.59
2023-04-15T22:44:16.538Z,82.78
2023-04-15T22:46:42.989Z,81.66
2023-04-15T22:49:09.826Z,82.26
2023-04-15T22:51:37.140Z,82.19
2023-04-15T22:54:03.645Z,82.01
2023-04-15T22:56:30.140Z,81.72
2023-04-15T22:58:56.517Z,81.11
2023-04-15T23:01:22.942Z,81.56
2023-04-15T23:03:57.428Z,80.89
2023-04-15T23:06:32.293Z,81.38
2023-04-15T23:08:58.641Z,80.33
2023-04-15T23:11:25.113Z,80.46
2023-04-15T23:13:51.601Z,80.28
2023-04-15T23:16:17.998Z,80.38
2023-04-15T23:18:44.409Z,80.73
2023-04-15T23:21:10.762Z,80.59
2023-04-15T23:23:37.169Z,81.07
2023-04-15T23:26:04.180Z,81.09
2023-04-15T23:28:30.812Z,81.40
2023-04-15T23:31:00.316Z,81.61
2023-04-15T23:33:27.260Z,81.56
2023-04-15T23:35:53.713Z,81.67
2023-04-15T23:38:20.164Z,81.95
2023-04-15T23:40:46.713Z,81.18
2023-04-15T23:43:13.171Z,81.40
2023-04-15T23:45:40.155Z,80.73
2023-04-15T23:48:06.823Z,81.82
2023-04-15T23:50:33.425Z,80.45
2023-04-15T23:52:59.984Z,80.84
2023-04-15T23:55:26.444Z,81.32
2023-04-15T23:57:52.804Z,82.33
